createdAt,value
2023-01-20T02:56:31.866Z,4.40
2023-01-20T02:59:13.164Z,4.40
2023-01-20T03:01:57.373Z,4.30
2023-01-20T03:04:29.617Z,4.30
2023-01-20T03:06:58.716Z,4.30
2023-01-20T03:09:31.492Z,4.40
2023-01-20T03:12:12.010Z,4.30
2023-01-20T03:14:39.612Z,4.40
2023-01-20T03:17:06.954Z,4.40
2023-01-20T03:19:35.043Z,4.40
2023-01-20T03:22:02.800Z,4.40
2023-01-20T03:24:32.685Z,4.40
2023-01-20T03:27:00.060Z,4.40
2023-01-20T03:29:28.476Z,4.40
2023-01-20T03:31:59.162Z,4.40
2023-01-20T03:34:30.140Z,4.40
2023-01-20T03:37:02.396Z,4.30
2023-01-20T03:39:30.532Z,4.30
2023-01-20T03:42:01.170Z,4.30
2023-01-20T03:44:53.074Z,4.20
2023-01-20T03:48:13.411Z,4.20
2023-01-20T03:50:54.116Z,4.20
2023-01-20T03:53:34.250Z,4.40
2023-01-20T03:56:12.615Z,4.20
2023-01-20T03:58:45.096Z,4.20
2023-01-20T04:01:18.620Z,4.20
2023-01-20T04:03:51.098Z,4.20
2023-01-20T04:06:22.518Z,4.20
2023-01-20T04:09:03.331Z,4.20
2023-01-20T04:11:31.676Z,4.20
2023-01-20T04:13:59.995Z,4.50
2023-01-20T04:16:27.786Z,4.20
2023-01-20T04:18:55.644Z,4.30
2023-01-20T04:21:31.573Z,4.30
2023-01-20T04:24:23.046Z,4.30
2023-01-20T04:26:50.536Z,4.30
2023-01-20T04:29:18.303Z,4.30
2023-01-20T04:32:02.508Z,4.30
2023-01-20T04:34:30.220Z,4.30
2023-01-20T04:36:57.846Z,4.30
2023-01-20T04:39:25.701Z,4.30
2023-01-20T04:41:53.034Z,4.30
2023-01-20T04:44:20.509Z,4.30
2023-01-20T04:46:47.811Z,4.30
2023-01-20T04:49:15.255Z,4.40
2023-01-20T04:51:42.710Z,4.40
2023-01-20T04:54:11.373Z,4.40
2023-01-20T04:56:38.707Z,4.40
2023-01-20T04:59:06.085Z,4.60
2023-01-20T05:01:33.554Z,4.40
2023-01-20T05:04:01.002Z,4.40
2023-01-20T05:06:28.418Z,4.40
2023-01-20T05:08:56.370Z,4.40
2023-01-20T05:11:23.754Z,4.40
2023-01-20T05:13:52.499Z,4.40
2023-01-20T05:16:25.839Z,4.50
2023-01-20T05:18:54.984Z,4.40
2023-01-20T05:21:23.269Z,4.40
2023-01-20T05:23:54.704Z,4.40
2023-01-20T05:26:24.039Z,4.60
2023-01-20T05:28:52.251Z,4.60
2023-01-20T05:31:20.064Z,4.40
2023-01-20T05:33:48.421Z,4.40
2023-01-20T05:36:16.087Z,4.30
2023-01-20T05:38:43.481Z,4.40
2023-01-20T05:41:11.105Z,4.40
2023-01-20T05:43:38.783Z,4.40
2023-01-20T05:46:06.864Z,4.40
2023-01-20T05:48:35.598Z,4.50
2023-01-20T05:51:03.747Z,4.40
2023-01-20T05:53:31.238Z,4.40
2023-01-20T05:56:03.456Z,4.40
2023-01-20T05:58:31.524Z,4.40
2023-01-20T06:01:10.985Z,4.40
2023-01-20T06:03:39.806Z,4.80
2023-01-20T06:06:14.053Z,4.40
2023-01-20T06:08:42.167Z,4.40
2023-01-20T06:11:09.937Z,4.70
2023-01-20T06:13:39.530Z,4.40
2023-01-20T06:16:07.689Z,4.40
2023-01-20T06:18:35.656Z,4.40
2023-01-20T06:21:03.025Z,4.40
2023-01-20T06:23:30.495Z,4.40
2023-01-20T06:26:14.563Z,4.40
2023-01-20T06:28:42.055Z,4.40
2023-01-20T06:31:14.914Z,4.40
2023-01-20T06:33:43.546Z,4.40
2023-01-20T06:36:14.013Z,4.40
2023-01-20T06:38:41.509Z,4.70
2023-01-20T06:41:10.831Z,4.40
2023-01-20T06:43:41.954Z,4.40
2023-01-20T06:46:15.773Z,4.40
2023-01-20T06:48:44.426Z,4.40
2023-01-20T06:51:15.402Z,4.40
2023-01-20T06:53:43.599Z,4.40
2023-01-20T06:56:12.587Z,4.40
2023-01-20T06:58:40.561Z,4.70
2023-01-20T07:01:18.593Z,4.40
2023-01-20T07:03:49.885Z,4.40
2023-01-20T07:06:29.859Z,4.40
2023-01-20T07:08:59.343Z,4.40
2023-01-20T07:11:29.295Z,4.40
2023-01-20T07:13:57.797Z,4.40
2023-01-20T07:16:25.177Z,4.50
2023-01-20T07:18:53.566Z,4.40
2023-01-20T07:21:23.942Z,4.50
2023-01-20T07:23:52.744Z,4.50
2023-01-20T07:26:22.273Z,4.50
2023-01-20T07:28:50.597Z,4.50
2023-01-20T07:31:23.524Z,4.50
2023-01-20T07:33:51.951Z,4.50
2023-01-20T07:36:19.569Z,4.50
2023-01-20T07:38:49.396Z,4.70
2023-01-20T07:41:19.596Z,4.40
2023-01-20T07:43:49.504Z,4.50
2023-01-20T07:46:17.211Z,4.50
2023-01-20T07:48:45.761Z,4.50
2023-01-20T07:51:14.766Z,4.50
2023-01-20T07:53:46.705Z,4.70
2023-01-20T07:56:19.922Z,4.50
2023-01-20T07:58:50.348Z,4.50
2023-01-20T08:01:30.226Z,4.50
2023-01-20T08:04:00.631Z,4.50
2023-01-20T08:06:29.523Z,4.50
2023-01-20T08:09:01.485Z,4.80
2023-01-20T08:11:29.431Z,4.60
2023-01-20T08:13:56.931Z,4.60
2023-01-20T08:16:24.318Z,5.00
2023-01-20T08:18:54.663Z,4.60
2023-01-20T08:21:27.799Z,4.60
2023-01-20T08:23:56.307Z,4.70
2023-01-20T08:26:25.143Z,4.70
2023-01-20T08:28:53.262Z,4.70
2023-01-20T08:31:23.441Z,4.80
2023-01-20T08:36:41.216Z,4.80
2023-01-20T08:42:01.313Z,5.50
2023-01-20T08:44:29.809Z,4.90
2023-01-20T08:46:59.385Z,4.90
2023-01-20T08:49:27.264Z,4.90
2023-01-20T08:56:07.981Z,4.90
2023-01-20T09:02:37.165Z,4.90
2023-01-20T09:05:08.617Z,4.90
2023-01-20T09:07:36.430Z,5.00
2023-01-20T09:10:04.893Z,5.00
2023-01-20T09:12:32.299Z,5.10
2023-01-20T09:14:59.829Z,5.10
2023-01-20T09:17:27.335Z,5.10
2023-01-20T09:19:54.751Z,5.50
2023-01-20T09:22:22.221Z,5.10
2023-01-20T09:24:50.119Z,5.20
2023-01-20T09:27:17.889Z,5.20
2023-01-20T09:39:00.210Z,5.20
2023-01-20T09:44:42.555Z,5.20
2023-01-20T09:47:21.248Z,5.20
2023-01-20T09:50:29.319Z,5.30
2023-01-20T09:53:08.263Z,5.30
2023-01-20T09:55:56.133Z,5.30
2023-01-20T09:58:45.720Z,5.40
2023-01-20T10:04:13.095Z,5.40
2023-01-20T10:06:47.625Z,5.40
2023-01-20T10:09:53.864Z,5.40
2023-01-20T10:13:11.344Z,5.40
2023-01-20T10:15:49.088Z,5.50
2023-01-20T10:18:26.734Z,5.90
2023-01-20T10:21:06.271Z,5.70
2023-01-20T10:23:56.855Z,5.80
2023-01-20T10:26:24.297Z,5.90
2023-01-20T10:29:02.560Z,6.40
2023-01-20T10:31:42.668Z,6.50
2023-01-20T10:34:18.843Z,6.20
2023-01-20T10:36:59.466Z,6.30
2023-01-20T10:39:41.587Z,6.40
2023-01-20T10:45:00.597Z,6.80
2023-01-20T10:47:38.894Z,6.60
2023-01-20T10:50:30.799Z,6.60
2023-01-20T10:53:13.345Z,6.60
2023-01-20T10:55:58.007Z,6.80
2023-01-20T10:58:32.431Z,7.20
2023-01-20T11:01:04.156Z,7.20
2023-01-20T11:03:40.434Z,7.30
2023-01-20T11:06:18.421Z,7.00
2023-01-20T11:08:48.630Z,7.00
2023-01-20T11:11:20.292Z,7.10
2023-01-20T11:13:48.533Z,7.40
2023-01-20T11:16:26.635Z,7.30
2023-01-20T11:19:08.251Z,7.00
2023-01-20T11:21:37.909Z,7.20
2023-01-20T11:24:32.060Z,7.10
2023-01-20T11:27:06.649Z,7.10
2023-01-20T11:29:42.691Z,7.10
2023-01-20T11:32:32.355Z,7.40
2023-01-20T11:35:01.554Z,7.10
2023-01-20T11:37:38.606Z,7.20
2023-01-20T11:40:27.804Z,7.50
2023-01-20T11:42:55.894Z,7.40
2023-01-20T11:45:36.778Z,7.60
2023-01-20T11:48:15.997Z,7.20
2023-01-20T11:50:50.005Z,7.30
2023-01-20T11:53:21.999Z,7.60
2023-01-20T11:55:52.827Z,7.60
2023-01-20T11:59:13.193Z,7.30
2023-01-20T12:02:59.135Z,7.20
2023-01-20T12:05:39.406Z,7.30
2023-01-20T12:08:16.547Z,7.60
2023-01-20T12:10:49.085Z,7.20
2023-01-20T12:13:21.595Z,7.20
2023-01-20T12:15:54.826Z,7.50
2023-01-20T12:18:34.194Z,7.30
2023-01-20T12:21:17.905Z,7.50
2023-01-20T12:24:01.590Z,7.20
2023-01-20T12:26:35.383Z,7.20
2023-01-20T12:29:17.975Z,7.50
2023-01-20T12:31:48.976Z,7.10
2023-01-20T12:34:28.012Z,7.50
2023-01-20T12:37:16.723Z,7.10
2023-01-20T12:39:52.645Z,7.10
2023-01-20T12:42:31.557Z,7.50
2023-01-20T12:45:34.751Z,7.50
2023-01-20T12:48:19.893Z,7.10
2023-01-20T12:53:58.018Z,7.10
2023-01-20T12:56:45.090Z,7.10
2023-01-20T12:59:15.150Z,7.10
2023-01-20T13:02:27.900Z,7.10
2023-01-20T13:05:53.241Z,7.10
2023-01-20T13:08:37.250Z,7.10
2023-01-20T13:11:16.490Z,7.10
2023-01-20T13:14:26.434Z,7.20
2023-01-20T13:17:28.079Z,7.20
2023-01-20T13:19:59.292Z,7.50
2023-01-20T13:22:26.894Z,7.60
2023-01-20T13:24:57.510Z,7.30
2023-01-20T13:27:36.123Z,7.20
2023-01-20T13:30:06.828Z,7.30
2023-01-20T13:32:48.108Z,7.30
2023-01-20T13:35:18.518Z,7.30
2023-01-20T13:37:51.700Z,7.60
2023-01-20T13:40:37.630Z,7.20
2023-01-20T13:43:27.397Z,7.20
2023-01-20T13:46:07.190Z,7.80
2023-01-20T13:48:43.348Z,7.30
2023-01-20T13:51:29.610Z,7.30
2023-01-20T13:54:36.527Z,7.30
2023-01-20T13:57:27.958Z,7.30
2023-01-20T13:59:56.088Z,7.30
2023-01-20T14:02:28.606Z,7.40
2023-01-20T14:04:58.591Z,7.70
2023-01-20T14:07:29.808Z,7.80
2023-01-20T14:09:59.707Z,7.40
2023-01-20T14:12:27.375Z,7.40
2023-01-20T14:14:55.440Z,7.40
2023-01-20T14:17:24.435Z,7.50
2023-01-20T14:19:56.062Z,7.40
2023-01-20T14:22:26.325Z,7.40
2023-01-20T14:24:59.836Z,7.40
2023-01-20T14:27:34.043Z,7.40
2023-01-20T14:30:16.505Z,7.80
2023-01-20T14:32:44.471Z,7.40
2023-01-20T14:35:31.330Z,7.50
2023-01-20T14:37:59.636Z,7.40
2023-01-20T14:40:32.363Z,7.70
2023-01-20T14:43:33.558Z,7.40
2023-01-20T14:46:02.224Z,7.40
2023-01-20T14:48:34.997Z,7.90
2023-01-20T14:51:04.177Z,7.40
2023-01-20T14:53:31.941Z,7.70
2023-01-20T14:56:07.347Z,7.40
2023-01-20T14:58:36.353Z,7.50
2023-01-20T15:01:06.152Z,7.50
2023-01-20T15:03:33.670Z,7.50
2023-01-20T15:06:10.381Z,7.50
2023-01-20T15:08:38.966Z,7.40
2023-01-20T15:11:18.913Z,7.40
2023-01-20T15:13:57.296Z,7.70
2023-01-20T15:16:30.871Z,7.40
2023-01-20T15:19:14.898Z,7.50
2023-01-20T15:21:44.115Z,7.40
2023-01-20T15:24:30.716Z,7.50
2023-01-20T15:27:01.475Z,6.80
2023-01-20T15:29:34.346Z,7.50
2023-01-20T15:32:09.626Z,7.50
2023-01-20T15:34:37.103Z,7.50
2023-01-20T15:37:15.317Z,7.50
2023-01-20T15:39:42.761Z,7.50
2023-01-20T15:42:13.155Z,7.50
2023-01-20T15:44:40.794Z,8.10
2023-01-20T15:47:26.017Z,7.50
2023-01-20T15:49:53.716Z,7.50
2023-01-20T15:52:21.017Z,7.60
2023-01-20T15:54:48.722Z,7.50
2023-01-20T15:57:17.539Z,7.80
2023-01-20T15:59:49.653Z,7.70
2023-01-20T16:02:19.358Z,7.80
2023-01-20T16:04:46.835Z,7.50
2023-01-20T16:07:19.976Z,7.50
2023-01-20T16:09:47.663Z,7.50
2023-01-20T16:12:18.041Z,7.50
2023-01-20T16:14:45.670Z,7.40
2023-01-20T16:17:19.343Z,7.40
2023-01-20T16:19:48.706Z,7.40
2023-01-20T16:22:17.720Z,7.40
2023-01-20T16:24:45.635Z,7.40
2023-01-20T16:27:22.149Z,7.40
2023-01-20T16:29:50.474Z,7.30
2023-01-20T16:32:22.340Z,7.40
2023-01-20T16:34:50.049Z,8.00
2023-01-20T16:37:17.974Z,7.40
2023-01-20T16:39:45.423Z,7.80
2023-01-20T16:42:13.795Z,7.80
2023-01-20T16:44:41.306Z,7.40
2023-01-20T16:47:08.729Z,7.80
2023-01-20T16:49:36.308Z,7.80
2023-01-20T16:52:04.293Z,7.50
2023-01-20T16:54:31.860Z,7.50
2023-01-20T16:56:59.775Z,7.60
2023-01-20T16:59:27.284Z,7.40
2023-01-20T17:01:55.308Z,7.70
2023-01-20T17:04:22.835Z,7.40
2023-01-20T17:06:52.811Z,7.50
2023-01-20T17:09:20.653Z,7.40
2023-01-20T17:16:05.902Z,7.40
2023-01-20T17:18:33.843Z,7.80
2023-01-20T17:21:06.111Z,7.70
2023-01-20T17:23:34.129Z,7.40
2023-01-20T17:26:02.799Z,7.70
2023-01-20T17:28:30.639Z,7.30
2023-01-20T17:31:02.486Z,7.90
2023-01-20T17:33:30.428Z,7.20
2023-01-20T17:35:59.774Z,7.30
2023-01-20T17:38:32.186Z,7.20
2023-01-20T17:41:04.815Z,7.20
2023-01-20T17:43:33.692Z,7.20
2023-01-20T17:46:01.592Z,7.10
2023-01-20T17:48:29.369Z,7.10
2023-01-20T17:50:59.146Z,7.50
2023-01-20T17:53:27.414Z,7.10
2023-01-20T17:56:06.647Z,7.10
2023-01-20T17:58:40.436Z,7.10
2023-01-20T18:01:18.798Z,7.10
2023-01-20T18:03:49.797Z,7.10
2023-01-20T18:06:19.586Z,7.10
2023-01-20T18:08:52.799Z,7.10
2023-01-20T18:11:22.742Z,7.00
2023-01-20T18:13:52.455Z,7.30
2023-01-20T18:16:22.181Z,7.00
2023-01-20T18:18:50.003Z,7.30
2023-01-20T18:21:20.298Z,6.90
2023-01-20T18:23:49.992Z,7.30
2023-01-20T18:26:19.383Z,6.90
2023-01-20T18:28:48.060Z,6.90
2023-01-20T18:31:18.115Z,6.80
2023-01-20T18:33:57.340Z,6.80
2023-01-20T18:36:31.096Z,6.80
2023-01-20T18:39:00.118Z,6.80
2023-01-20T18:41:29.617Z,6.80
2023-01-20T18:43:58.200Z,6.80
2023-01-20T18:46:26.845Z,6.80
2023-01-20T18:48:55.364Z,6.80
2023-01-20T18:51:25.324Z,6.70
2023-01-20T18:53:56.122Z,6.70
2023-01-20T18:56:24.684Z,6.70
2023-01-20T18:58:53.924Z,6.70
2023-01-20T19:01:28.644Z,6.70
2023-01-20T19:03:57.045Z,6.70
2023-01-20T19:06:27.206Z,6.60
2023-01-20T19:08:57.781Z,6.60
2023-01-20T19:11:31.570Z,6.70
2023-01-20T19:13:59.821Z,6.60
2023-01-20T19:16:37.827Z,6.60
2023-01-20T19:19:07.176Z,6.90
2023-01-20T19:21:37.245Z,6.60
2023-01-20T19:24:07.780Z,6.50
2023-01-20T19:26:37.616Z,6.60
2023-01-20T19:29:10.780Z,6.50
2023-01-20T19:31:39.954Z,6.50
2023-01-20T19:34:09.028Z,6.50
2023-01-20T19:36:37.337Z,6.50
2023-01-20T19:39:05.771Z,6.50
2023-01-20T19:41:34.316Z,6.50
2023-01-20T19:44:04.441Z,6.50
2023-01-20T19:46:34.180Z,6.50
2023-01-20T19:49:02.425Z,6.50
2023-01-20T19:51:31.743Z,6.80
2023-01-20T19:54:02.137Z,6.80
2023-01-20T19:56:32.330Z,6.40
2023-01-20T19:59:00.867Z,6.40
2023-01-20T20:01:31.860Z,6.50
2023-01-20T20:04:03.619Z,6.50
2023-01-20T20:06:33.642Z,6.80
2023-01-20T20:09:05.606Z,6.40
2023-01-20T20:11:33.670Z,6.40
2023-01-20T20:14:03.014Z,6.50
2023-01-20T20:16:33.151Z,6.40
2023-01-20T20:19:00.816Z,6.30
2023-01-20T20:21:28.703Z,6.30
2023-01-20T20:23:58.839Z,6.30
2023-01-20T20:26:31.934Z,6.30
2023-01-20T20:29:00.622Z,6.30
2023-01-20T20:31:31.297Z,6.20
2023-01-20T20:34:00.122Z,6.30
2023-01-20T20:36:29.534Z,6.20
2023-01-20T20:38:58.754Z,6.30
2023-01-20T20:41:29.108Z,6.20
2023-01-20T20:44:01.149Z,6.20
2023-01-20T20:46:29.518Z,6.20
2023-01-20T20:49:01.883Z,6.20
2023-01-20T20:51:31.767Z,6.20
2023-01-20T20:54:01.822Z,6.50
2023-01-20T20:56:33.723Z,6.60
2023-01-20T20:59:03.426Z,6.10
2023-01-20T21:01:34.009Z,6.20
2023-01-20T21:04:02.956Z,6.10
2023-01-20T21:06:31.496Z,6.10
2023-01-20T21:08:59.320Z,6.50
2023-01-20T21:15:43.594Z,6.00
2023-01-20T21:18:11.001Z,6.00
2023-01-20T21:20:38.536Z,6.00
2023-01-20T21:23:05.962Z,5.90
2023-01-20T21:25:33.402Z,6.30
2023-01-20T21:28:00.775Z,5.90
2023-01-20T21:30:28.183Z,5.90
2023-01-20T21:32:55.907Z,5.90
2023-01-20T21:35:23.831Z,5.90
2023-01-20T21:37:51.181Z,5.90
2023-01-20T21:40:18.957Z,5.80
2023-01-20T21:42:46.458Z,6.40
2023-01-20T21:45:13.971Z,5.70
2023-01-20T21:47:41.397Z,5.80
2023-01-20T21:50:29.747Z,5.80
2023-01-20T21:52:57.393Z,5.80
2023-01-20T21:55:24.743Z,5.70
2023-01-20T21:57:52.205Z,5.70
2023-01-20T22:00:21.111Z,5.70
2023-01-20T22:02:48.946Z,5.70
2023-01-20T22:05:16.537Z,5.70
2023-01-20T22:07:44.328Z,6.10
2023-01-20T22:10:12.841Z,5.70
2023-01-20T22:12:40.366Z,6.00
2023-01-20T22:15:08.449Z,5.70
2023-01-20T22:17:35.909Z,5.70
2023-01-20T22:20:04.355Z,5.70
2023-01-20T22:22:31.788Z,5.70
2023-01-20T22:24:59.190Z,5.70
2023-01-20T22:27:26.525Z,5.70
2023-01-20T22:29:53.876Z,5.60
2023-01-20T22:32:21.728Z,5.60
2023-01-20T22:34:49.188Z,5.60
2023-01-20T22:37:16.534Z,5.90
2023-01-20T22:39:44.028Z,5.70
2023-01-20T22:42:11.411Z,5.70
2023-01-20T22:44:38.849Z,5.70
2023-01-20T22:47:09.812Z,5.70
2023-01-20T22:49:38.700Z,5.70
2023-01-20T22:52:32.083Z,6.20
2023-01-20T22:54:59.726Z,5.70
2023-01-20T22:57:29.916Z,6.00
2023-01-20T22:59:57.266Z,5.70
2023-01-20T23:06:53.842Z,5.80
2023-01-20T23:09:21.760Z,6.00
2023-01-20T23:11:49.855Z,5.70
2023-01-20T23:14:38.628Z,6.30
2023-01-20T23:17:10.333Z,5.70
2023-01-20T23:19:37.997Z,5.70
2023-01-20T23:22:07.414Z,5.70
2023-01-20T23:24:34.908Z,6.00
2023-01-20T23:27:02.477Z,5.70
2023-01-20T23:29:30.154Z,5.80
2023-01-20T23:31:57.476Z,5.80
2023-01-20T23:34:25.383Z,5.70
2023-01-20T23:36:53.034Z,5.70
2023-01-20T23:39:20.536Z,5.70
2023-01-20T23:41:47.879Z,5.70
2023-01-20T23:44:16.279Z,5.60
